Time;durP1;ratioP1;P1;durP2;ratioP2;P2;SDS_P1;SDS_P2;PMS_P1;PMS_P2;Temp;Humidity;BMP_temperature;BMP_pressure;BME280_temperature;BME280_humidity;BME280_pressure;Samples;Min_cycle;Max_cycle;Signal;HPM_P1;HPM_P2
2022/09/16 00:01:22;;;;;;;6.05;2.58;;;;;;;11.37;100.00;163536.56;4993826;28;20034;-66
2022/09/16 00:03:48;;;;;;;3.40;2.22;;;;;;;11.31;100.00;163521.72;4992302;28;20046;-66
2022/09/16 00:06:28;;;;;;;4.32;2.40;;;;;;;11.24;100.00;163502.81;4994180;28;20413;-66
2022/09/16 00:08:56;;;;;;;3.85;2.28;;;;;;;11.24;100.00;163502.81;4992832;28;20062;-66
2022/09/16 00:11:23;;;;;;;7.55;2.55;;;;;;;11.09;100.00;163465.00;4992761;28;20084;-65
2022/09/16 00:13:48;;;;;;;4.50;3.67;;;;;;;11.14;100.00;163475.78;4992207;28;20047;-65
2022/09/16 00:16:20;;;;;;;6.30;3.40;;;;;;;11.10;100.00;163467.72;4993719;28;20041;-66
2022/09/16 00:18:46;;;;;;;3.47;2.25;;;;;;;11.04;100.00;163451.50;4991789;28;20064;-66
2022/09/16 00:21:11;;;;;;;4.43;2.03;;;;;;;11.09;100.00;163465.00;4993467;28;20386;-66
2022/09/16 00:23:36;;;;;;;8.63;1.88;;;;;;;11.10;100.00;163467.72;4992085;28;20109;-65
2022/09/16 00:26:02;;;;;;;2.80;2.00;;;;;;;11.19;100.00;163489.31;4993252;28;20077;-66
2022/09/16 00:28:28;;;;;;;7.32;1.77;;;;;;;11.26;100.00;163508.22;4993354;28;20109;-66
2022/09/16 00:30:57;;;;;;;5.80;1.80;;;;;;;11.31;100.00;163521.72;4991913;28;20070;-66
2022/09/16 00:33:23;;;;;;;1.73;1.63;;;;;;;11.37;100.00;163537.91;4992982;28;20114;-66
2022/09/16 00:35:48;;;;;;;4.68;1.80;;;;;;;11.43;100.00;163554.09;4992117;28;20042;-66
2022/09/16 00:38:13;;;;;;;2.63;1.60;;;;;;;11.45;100.00;163556.81;4993394;28;20041;-66
2022/09/16 00:40:47;;;;;;;11.02;2.45;;;;;;;11.43;100.00;163554.09;4992108;28;20096;-66
2022/09/16 00:43:14;;;;;;;7.85;2.47;;;;;;;11.46;100.00;163560.91;4993042;28;20397;-68
2022/09/16 00:45:40;;;;;;;4.75;1.60;;;;;;;11.46;100.00;163559.50;4991829;28;20643;-69
2022/09/16 00:48:08;;;;;;;7.72;3.75;;;;;;;11.43;100.00;163552.78;4993251;28;20033;-69
2022/09/16 00:50:47;;;;;;;7.18;3.10;;;;;;;11.44;100.00;163555.47;4991331;28;20049;-67
2022/09/16 00:53:30;;;;;;;4.45;2.30;;;;;;;11.48;100.00;163564.94;4992969;28;20099;-67
2022/09/16 00:55:59;;;;;;;7.97;2.28;;;;;;;11.46;100.00;163559.50;4991356;28;20038;-67
2022/09/16 00:58:49;;;;;;;9.70;2.95;;;;;;;11.47;100.00;163562.22;4992900;28;20034;-67
2022/09/16 01:01:15;;;;;;;5.55;1.83;;;;;;;11.49;100.00;163568.97;4991456;28;20050;-67
2022/09/16 01:03:48;;;;;;;5.80;1.98;;;;;;;11.45;100.00;163556.81;4991046;28;20026;-67
2022/09/16 01:06:17;;;;;;;6.97;3.10;;;;;;;11.53;100.00;163578.41;4992526;28;20084;-67
2022/09/16 01:08:42;;;;;;;3.85;1.80;;;;;;;11.54;100.00;163581.13;4991244;28;20034;-67
2022/09/16 01:11:08;;;;;;;2.95;2.17;;;;;;;11.54;100.00;163581.13;4991970;28;20113;-67
2022/09/16 01:13:33;;;;;;;5.97;2.28;;;;;;;11.53;100.00;163578.41;4991275;28;20038;-66
2022/09/16 01:16:31;;;;;;;4.18;2.95;;;;;;;11.55;100.00;163585.16;4992538;28;20026;-67
2022/09/16 01:19:27;;;;;;;5.10;3.23;;;;;;;11.55;100.00;163583.84;4971655;28;20046;-67
2022/09/16 01:22:07;;;;;;;6.22;3.13;;;;;;;11.51;100.00;163573.00;4984222;28;20054;-67
2022/09/16 01:24:50;;;;;;;5.72;1.83;;;;;;;11.47;100.00;163563.56;4990489;28;20522;-67
2022/09/16 01:27:51;;;;;;;3.25;2.20;;;;;;;11.47;100.00;163562.22;4991840;28;20025;-67
2022/09/16 01:30:53;;;;;;;6.95;3.20;;;;;;;11.45;100.00;163556.81;4990291;28;20363;-67
2022/09/16 01:33:48;;;;;;;9.05;3.38;;;;;;;11.47;100.00;163562.22;4991791;28;20482;-67
2022/09/16 01:36:31;;;;;;;6.50;2.78;;;;;;;11.41;100.00;163548.75;4952137;28;20404;-67
2022/09/16 01:39:22;;;;;;;7.68;3.13;;;;;;;11.48;100.00;163564.94;4963843;28;20046;-68
2022/09/16 01:42:31;;;;;;;7.28;3.00;;;;;;;11.50;100.00;163571.69;4991576;28;20042;-68
2022/09/16 01:45:21;;;;;;;8.80;4.32;;;;;;;11.50;100.00;163571.69;4990497;28;20042;-68
2022/09/16 01:48:19;;;;;;;6.93;3.05;;;;;;;11.52;100.00;163575.72;4991958;28;20042;-69
2022/09/16 01:51:00;;;;;;;6.25;3.50;;;;;;;11.50;100.00;163570.34;4971435;28;20529;-68
2022/09/16 01:53:47;;;;;;;4.78;2.67;;;;;;;11.47;100.00;163562.22;4975066;28;20041;-66
2022/09/16 01:56:21;;;;;;;8.30;2.65;;;;;;;11.50;100.00;163570.34;4990169;28;20046;-66
2022/09/16 01:59:01;;;;;;;5.15;3.15;;;;;;;11.48;100.00;163564.94;4990369;28;20022;-66
2022/09/16 02:01:35;;;;;;;6.57;2.95;;;;;;;11.51;100.00;163574.38;4992223;28;20026;-66
2022/09/16 02:04:07;;;;;;;3.97;3.00;;;;;;;11.55;100.00;163583.84;4990099;28;20035;-66
2022/09/16 02:06:35;;;;;;;7.45;2.65;;;;;;;11.52;100.00;163575.72;4991471;28;20050;-67
2022/09/16 02:09:08;;;;;;;8.50;2.13;;;;;;;11.52;100.00;163575.72;4990107;28;20429;-66
2022/09/16 02:11:35;;;;;;;7.90;4.03;;;;;;;11.50;100.00;163570.34;4991678;28;20029;-67
2022/09/16 02:14:17;;;;;;;7.82;3.70;;;;;;;11.48;100.00;163564.94;4990258;28;20044;-68
2022/09/16 02:17:01;;;;;;;6.35;3.45;;;;;;;11.49;100.00;163567.63;4972424;28;20475;-67
2022/09/16 02:19:36;;;;;;;11.05;4.20;;;;;;;11.45;100.00;163556.81;4981176;28;20062;-67
2022/09/16 02:22:09;;;;;;;8.32;3.45;;;;;;;11.44;100.00;163555.47;4991586;28;20474;-67
2022/09/16 02:24:37;;;;;;;7.80;3.10;;;;;;;11.40;100.00;163546.03;4989642;28;20081;-67
2022/09/16 02:27:07;;;;;;;11.68;4.68;;;;;;;11.34;100.00;163529.84;4991538;28;20022;-67
2022/09/16 02:29:38;;;;;;;8.82;3.65;;;;;;;11.27;100.00;163510.94;4990109;28;20103;-66
2022/09/16 02:32:06;;;;;;;5.18;2.47;;;;;;;11.19;100.00;163489.31;4990870;28;20501;-66
2022/09/16 02:34:37;;;;;;;6.63;2.92;;;;;;;11.11;100.00;163470.41;4990379;28;20042;-67
2022/09/16 02:37:09;;;;;;;6.05;2.72;;;;;;;11.08;100.00;163462.28;4991103;28;20085;-67
2022/09/16 02:39:38;;;;;;;5.15;2.75;;;;;;;11.08;100.00;163460.97;4989466;28;20105;-67
2022/09/16 02:42:04;;;;;;;9.70;3.50;;;;;;;11.07;100.00;163459.59;4991644;28;20041;-66
2022/09/16 02:44:30;;;;;;;5.95;2.67;;;;;;;11.07;100.00;163459.59;4994040;28;20076;-66
2022/09/16 02:47:12;;;;;;;6.88;3.10;;;;;;;11.07;100.00;163459.59;4994660;28;20648;-65
2022/09/16 02:49:51;;;;;;;4.95;2.88;;;;;;;11.11;100.00;163470.41;4994096;28;20536;-66
2022/09/16 02:52:32;;;;;;;12.65;4.20;;;;;;;11.06;100.00;163456.88;4995380;28;20025;-66
2022/09/16 02:55:14;;;;;;;10.80;5.15;;;;;;;11.13;100.00;163473.13;4992835;28;20257;-67
2022/09/16 02:57:40;;;;;;;9.35;3.47;;;;;;;11.15;100.00;163478.47;4995671;28;20073;-66
2022/09/16 03:00:06;;;;;;;9.77;4.15;;;;;;;11.16;100.00;163482.56;4993610;28;20105;-66
2022/09/16 03:02:33;;;;;;;8.27;3.80;;;;;;;11.14;100.00;163477.16;4994835;28;20540;-66
2022/09/16 03:04:59;;;;;;;10.15;5.40;;;;;;;11.15;100.00;163479.88;4993335;28;20035;-66
2022/09/16 03:07:25;;;;;;;10.05;3.80;;;;;;;11.16;100.00;163481.19;4994896;28;20077;-66
2022/09/16 03:09:51;;;;;;;12.40;3.85;;;;;;;11.09;100.00;163465.00;4993213;28;20050;-67
2022/09/16 03:12:28;;;;;;;7.53;2.63;;;;;;;11.10;100.00;163467.72;4995183;28;20052;-67
2022/09/16 03:15:11;;;;;;;5.80;3.75;;;;;;;11.13;100.00;163473.13;4992954;28;20038;-67
2022/09/16 03:18:02;;;;;;;13.63;4.13;;;;;;;11.17;100.00;163483.91;4994929;28;20386;-67
2022/09/16 03:20:39;;;;;;;10.70;3.05;;;;;;;11.18;100.00;163486.59;4993412;28;20556;-66
2022/09/16 03:23:17;;;;;;;8.00;3.88;;;;;;;11.14;100.00;163477.16;4994270;28;20485;-66
2022/09/16 03:25:55;;;;;;;10.80;3.97;;;;;;;11.14;100.00;163475.78;4992940;28;20039;-66
2022/09/16 03:28:30;;;;;;;8.05;3.00;;;;;;;11.12;100.00;163471.75;4995189;28;20037;-66
2022/09/16 03:31:04;;;;;;;10.18;3.88;;;;;;;11.11;100.00;163469.03;4992974;28;20510;-66
2022/09/16 03:33:49;;;;;;;13.77;3.60;;;;;;;11.11;100.00;163469.03;4994479;28;20093;-66
2022/09/16 03:36:18;;;;;;;10.85;3.20;;;;;;;11.04;100.00;163451.50;4992723;28;20046;-66
2022/09/16 03:38:43;;;;;;;;;;;;;;;11.09;100.00;163463.66;4975420;28;20034;-67
2022/09/16 03:41:09;;;;;;;5.50;2.78;;;;;;;11.07;100.00;163459.59;4986275;28;19917;-66
2022/09/16 03:43:35;;;;;;;7.45;4.18;;;;;;;11.03;100.00;163448.81;4994556;28;20022;-67
2022/09/16 03:46:00;;;;;;;13.50;4.35;;;;;;;11.01;100.00;163442.06;4992435;28;20615;-66
2022/09/16 03:48:26;;;;;;;3.42;2.95;;;;;;;11.02;100.00;163444.78;4994725;28;20050;-66
2022/09/16 03:50:52;;;;;;;4.95;2.70;;;;;;;10.99;100.00;163437.97;4992239;28;20548;-67
2022/09/16 03:53:18;;;;;;;7.47;2.83;;;;;;;11.04;100.00;163451.50;4993112;28;20030;-67
2022/09/16 03:55:43;;;;;;;8.68;3.38;;;;;;;11.02;100.00;163444.78;4992629;28;20434;-67
2022/09/16 03:58:09;;;;;;;7.72;2.30;;;;;;;11.00;100.00;163439.34;4994325;28;20030;-66
2022/09/16 04:00:34;;;;;;;14.93;3.50;;;;;;;10.99;100.00;163437.97;4992211;28;20043;-66
2022/09/16 04:03:00;;;;;;;6.53;2.38;;;;;;;10.97;100.00;163432.63;4993897;28;20030;-66
2022/09/16 04:05:26;;;;;;;7.18;3.45;;;;;;;10.98;100.00;163435.31;4992247;28;20042;-66
2022/09/16 04:07:51;;;;;;;4.90;1.73;;;;;;;11.00;100.00;163440.69;4994123;28;20018;-66
2022/09/16 04:10:17;;;;;;;13.63;3.08;;;;;;;11.04;100.00;163451.50;4991978;28;20057;-65
2022/09/16 04:12:43;;;;;;;12.25;4.25;;;;;;;11.07;100.00;163459.59;4993279;28;20045;-67
2022/09/16 04:15:09;;;;;;;12.68;3.55;;;;;;;11.07;100.00;163458.25;4991471;28;20402;-67
2022/09/16 04:17:34;;;;;;;5.35;2.65;;;;;;;11.02;100.00;163444.78;4993580;28;20536;-67
2022/09/16 04:20:00;;;;;;;13.63;4.80;;;;;;;10.99;100.00;163437.97;4991761;28;20031;-67
2022/09/16 04:22:29;;;;;;;5.47;3.45;;;;;;;10.97;100.00;163432.63;4993097;28;20026;-67
2022/09/16 04:24:55;;;;;;;4.47;2.90;;;;;;;10.89;100.00;163412.34;4991772;28;20038;-67
2022/09/16 04:27:20;;;;;;;3.78;2.30;;;;;;;10.88;100.00;163409.63;4993741;28;20026;-67
2022/09/16 04:29:46;;;;;;;8.60;2.92;;;;;;;10.93;100.00;163421.78;4992129;28;20054;-67
2022/09/16 04:32:11;;;;;;;6.65;3.60;;;;;;;10.96;100.00;163429.91;4992822;28;20113;-67
2022/09/16 04:34:36;;;;;;;6.72;3.42;;;;;;;10.94;100.00;163424.50;4991815;28;20050;-67
2022/09/16 04:37:02;;;;;;;9.85;3.83;;;;;;;10.99;100.00;163437.97;4993545;28;20022;-67
2022/09/16 04:39:27;;;;;;;8.18;4.65;;;;;;;11.01;100.00;163443.38;4992013;28;20429;-67
2022/09/16 04:41:53;;;;;;;9.70;4.30;;;;;;;11.02;100.00;163446.09;4992551;28;20029;-67
2022/09/16 04:44:18;;;;;;;11.75;4.57;;;;;;;11.04;100.00;163451.50;4989962;28;20038;-64
2022/09/16 04:46:43;;;;;;;8.27;4.22;;;;;;;11.02;100.00;163446.09;4992437;28;20037;-64
2022/09/16 04:49:11;;;;;;;13.30;5.40;;;;;;;11.07;100.00;163459.59;4991433;28;20038;-64
2022/09/16 04:51:36;;;;;;;5.90;3.77;;;;;;;11.07;100.00;163458.25;4993588;28;20019;-65
2022/09/16 04:54:02;;;;;;;11.25;4.47;;;;;;;11.09;100.00;163463.66;4991325;28;20453;-64
2022/09/16 04:56:30;;;;;;;11.75;5.30;;;;;;;11.08;100.00;163462.28;4993353;28;20626;-64
2022/09/16 04:58:58;;;;;;;11.30;4.68;;;;;;;11.04;100.00;163451.50;4991819;28;20053;-64
2022/09/16 05:01:29;;;;;;;7.47;4.70;;;;;;;11.08;100.00;163462.28;4992820;28;20486;-64
2022/09/16 05:03:57;;;;;;;7.95;4.43;;;;;;;11.10;100.00;163467.72;4991615;28;20088;-64
2022/09/16 05:06:25;;;;;;;18.48;7.82;;;;;;;11.13;100.00;163473.13;4992543;28;20022;-64
2022/09/16 05:08:52;;;;;;;6.45;3.65;;;;;;;11.16;100.00;163481.19;4991316;28;20092;-64
2022/09/16 05:11:20;;;;;;;12.77;4.45;;;;;;;11.10;100.00;163466.31;4993005;28;20168;-64
2022/09/16 05:13:45;;;;;;;4.10;3.03;;;;;;;11.11;100.00;163470.41;4991531;28;20040;-64
2022/09/16 05:16:19;;;;;;;9.77;3.75;;;;;;;11.14;100.00;163475.78;4992197;28;20381;-64
2022/09/16 05:18:46;;;;;;;6.78;3.08;;;;;;;11.11;100.00;163469.03;4991379;28;20470;-64
2022/09/16 05:21:15;;;;;;;11.35;3.55;;;;;;;11.06;100.00;163456.88;4992545;28;20502;-64
2022/09/16 05:23:41;;;;;;;12.55;3.83;;;;;;;11.06;100.00;163456.88;4990603;28;20062;-64
2022/09/16 05:26:12;;;;;;;6.10;3.33;;;;;;;10.95;100.00;163428.53;4992569;28;20061;-61
2022/09/16 05:28:38;;;;;;;17.23;6.40;;;;;;;10.93;100.00;163421.78;4985806;28;20030;-60
2022/09/16 05:31:37;;;;;;;19.70;5.22;;;;;;;10.95;100.00;163427.19;4972319;28;20410;-60
2022/09/16 05:34:05;;;;;;;9.00;3.88;;;;;;;10.92;100.00;163420.47;4972609;28;20520;-60
2022/09/16 05:36:33;;;;;;;4.93;3.80;;;;;;;10.96;100.00;163429.91;4975268;28;20033;-62
2022/09/16 05:38:59;;;;;;;10.83;4.47;;;;;;;10.93;100.00;163423.16;4971071;28;20126;-62
2022/09/16 05:41:24;;;;;;;9.68;4.32;;;;;;;10.93;100.00;163421.78;4973050;28;20030;-62
2022/09/16 05:43:50;;;;;;;9.73;3.90;;;;;;;10.95;100.00;163427.19;4971576;28;20037;-62
2022/09/16 05:46:19;;;;;;;9.48;4.57;;;;;;;10.90;100.00;163413.72;4972574;28;20030;-62
2022/09/16 05:48:45;;;;;;;10.60;4.68;;;;;;;10.87;100.00;163406.91;4971430;28;20045;-63
2022/09/16 05:51:13;;;;;;;10.68;3.60;;;;;;;10.84;100.00;163397.47;4972913;28;20030;-62
2022/09/16 05:53:39;;;;;;;8.55;4.50;;;;;;;10.82;100.00;163392.09;4971112;28;20027;-62
2022/09/16 05:56:07;;;;;;;11.75;4.57;;;;;;;10.85;100.00;163400.19;4972588;28;20078;-62
2022/09/16 05:58:34;;;;;;;7.65;3.78;;;;;;;10.87;100.00;163405.59;4971572;28;20089;-62
2022/09/16 06:01:05;;;;;;;6.03;4.03;;;;;;;10.91;100.00;163417.75;4972243;28;20093;-62
2022/09/16 06:03:33;;;;;;;8.80;4.93;;;;;;;10.94;100.00;163424.50;4970880;28;20114;-62
2022/09/16 06:06:24;;;;;;;5.90;3.95;;;;;;;10.94;100.00;163424.50;4972609;28;20022;-62
2022/09/16 06:08:52;;;;;;;8.23;4.35;;;;;;;10.97;100.00;163431.22;4970648;28;20039;-62
2022/09/16 06:11:18;;;;;;;10.93;5.30;;;;;;;11.01;100.00;163443.38;4972205;28;20661;-62
2022/09/16 06:13:43;;;;;;;7.75;4.20;;;;;;;11.07;100.00;163459.59;4969721;28;20599;-62
2022/09/16 06:16:09;;;;;;;7.18;3.90;;;;;;;11.07;100.00;118415.97;4971808;28;20033;-62
2022/09/16 06:18:36;;;;;;;8.93;4.55;;;;;;;-120.18;100.00;163459.59;4971135;28;20143;-62
2022/09/16 06:21:04;;;;;;;9.43;4.05;;;;;;;-146.58;100.00;69501.63;4972310;28;20022;-62
2022/09/16 06:23:29;;;;;;;10.82;5.53;;;;;;;11.07;100.00;163459.59;4970624;28;20022;-62
2022/09/16 06:26:00;;;;;;;7.22;3.78;;;;;;;11.15;100.00;163478.47;4972071;28;20033;-62
2022/09/16 06:28:25;;;;;;;13.60;5.03;;;;;;;11.26;100.00;163509.56;4971167;28;20041;-62
2022/09/16 06:31:19;;;;;;;8.93;3.55;;;;;;;11.31;100.00;163521.72;4977801;28;20046;-62
2022/09/16 06:33:45;;;;;;;8.27;4.25;;;;;;;11.48;100.00;163566.25;4998589;28;20501;-61
2022/09/16 06:36:13;;;;;;;10.52;3.55;;;;;;;11.56;100.00;163586.53;5010322;28;20033;-62
2022/09/16 06:38:39;;;;;;;9.83;2.77;;;;;;;11.77;100.00;163640.56;4989764;28;20038;-62
2022/09/16 06:41:07;;;;;;;5.70;2.60;;;;;;;11.91;100.00;163678.38;4989311;28;20493;-62
2022/09/16 06:43:33;;;;;;;4.33;3.57;;;;;;;11.95;100.00;163689.16;4989653;28;20026;-62
2022/09/16 06:46:08;;;;;;;8.45;2.92;;;;;;;11.88;100.00;163671.63;4991234;28;20037;-62
2022/09/16 06:48:34;;;;;;;6.30;3.58;;;;;;;11.87;100.00;163667.59;4990226;28;20026;-62
2022/09/16 06:51:05;;;;;;;9.57;2.35;;;;;;;11.91;100.00;163678.38;4990961;28;20037;-62
2022/09/16 06:53:31;;;;;;;9.88;3.08;;;;;;;12.05;100.00;163716.25;4990282;28;20033;-62
2022/09/16 06:56:05;;;;;;;11.30;2.95;;;;;;;12.04;100.00;163713.56;4991280;28;20352;-62
2022/09/16 06:58:32;;;;;;;4.68;2.83;;;;;;;12.27;100.00;163773.00;4990078;28;20026;-62
2022/09/16 07:00:58;;;;;;;4.70;2.88;;;;;;;12.43;100.00;163814.91;4991135;28;20034;-62
2022/09/16 07:03:23;;;;;;;6.32;2.03;;;;;;;12.53;100.00;163841.91;4991366;28;20052;-63
2022/09/16 07:05:57;;;;;;;2.45;2.00;;;;;;;12.65;100.00;163873.00;4989555;28;20042;-63
2022/09/16 07:08:23;;;;;;;1.92;1.60;;;;;;;12.48;100.00;163827.03;4991518;28;20022;-63
2022/09/16 07:11:01;;;;;;;9.93;3.15;;;;;;;12.56;100.00;163848.66;4989858;28;20058;-63
2022/09/16 07:13:27;;;;;;;6.87;2.00;;;;;;;12.70;100.00;163886.50;4989586;28;20030;-62
2022/09/16 07:15:53;;;;;;;7.25;2.47;;;;;;;12.81;100.00;163913.56;4991229;28;20430;-62
2022/09/16 07:18:19;;;;;;;14.20;2.70;;;;;;;12.79;100.00;163908.13;4990554;28;20035;-62
2022/09/16 07:20:44;;;;;;;4.70;2.10;;;;;;;12.77;100.00;163902.75;4989620;28;20425;-63
2022/09/16 07:23:09;;;;;;;10.52;2.63;;;;;;;12.80;100.00;163910.84;4991030;28;20034;-62
2022/09/16 07:25:35;;;;;;;10.00;4.30;;;;;;;12.84;100.00;163921.69;4989288;28;20039;-62
2022/09/16 07:28:00;;;;;;;5.05;2.20;;;;;;;12.81;100.00;163913.56;4990849;28;20022;-63
2022/09/16 07:30:28;;;;;;;5.35;3.22;;;;;;;12.92;100.00;163943.28;4993133;28;20054;-63
2022/09/16 07:32:54;;;;;;;8.57;2.92;;;;;;;13.19;100.00;164013.59;4994837;28;20501;-63
2022/09/16 07:35:19;;;;;;;6.82;3.45;;;;;;;13.91;100.00;164202.94;4993074;28;20049;-63
2022/09/16 07:37:45;;;;;;;2.75;2.13;;;;;;;14.82;100.00;164441.13;4994746;28;20030;-63
2022/09/16 07:40:12;;;;;;;22.13;3.00;;;;;;;15.82;100.00;164703.69;4992976;28;20045;-63
2022/09/16 07:42:37;;;;;;;4.32;1.73;;;;;;;16.75;100.00;164947.56;4994405;28;20041;-63
2022/09/16 07:45:03;;;;;;;5.90;2.10;;;;;;;191.39;100.00;164947.56;4992822;28;20034;-63
2022/09/16 07:47:28;;;;;;;4.28;1.40;;;;;;;16.75;100.00;164947.56;4994847;28;20026;-63
2022/09/16 07:49:54;;;;;;;11.00;2.88;;;;;;;-146.58;100.00;69501.63;4992711;28;20050;-63
2022/09/16 07:52:28;;;;;;;16.95;3.78;;;;;;;-146.58;100.00;69501.63;4994650;28;20022;-63
2022/09/16 07:54:56;;;;;;;4.25;1.77;;;;;;;-146.58;100.00;69501.63;4993146;28;20045;-63
2022/09/16 07:57:22;;;;;;;5.88;1.55;;;;;;;-146.58;100.00;69501.63;4994059;28;20033;-64
2022/09/16 07:59:47;;;;;;;10.15;3.60;;;;;;;-146.58;100.00;69501.63;4992943;28;20042;-63
2022/09/16 08:02:13;;;;;;;4.13;1.88;;;;;;;-146.58;100.00;69501.63;4994332;28;20029;-62
2022/09/16 08:04:39;;;;;;;6.68;1.80;;;;;;;-146.58;100.00;69501.63;4992659;28;20125;-62
2022/09/16 08:07:05;;;;;;;6.35;3.75;;;;;;;-146.58;100.00;69501.63;4993902;28;20030;-62
2022/09/16 08:09:30;;;;;;;5.63;2.88;;;;;;;-146.58;100.00;69501.63;4992651;28;20038;-63
2022/09/16 08:11:55;;;;;;;5.78;1.92;;;;;;;-146.58;100.00;69501.63;4994237;28;20088;-63
2022/09/16 08:14:21;;;;;;;4.70;2.53;;;;;;;-146.58;100.00;69501.63;4992301;28;20497;-63
2022/09/16 08:16:50;;;;;;;5.72;1.90;;;;;;;-146.58;100.00;69501.63;4994008;28;20038;-63
2022/09/16 08:19:16;;;;;;;5.80;2.08;;;;;;;-146.58;100.00;69501.63;4992507;28;20030;-63
2022/09/16 08:21:41;;;;;;;1.80;1.00;;;;;;;-146.58;100.00;69501.63;4993503;28;20030;-63
2022/09/16 08:24:08;;;;;;;3.35;1.67;;;;;;;-146.58;100.00;69501.63;4992035;28;20045;-63
2022/09/16 08:26:34;;;;;;;1.15;1.05;;;;;;;-146.58;100.00;69501.63;4993879;28;20057;-63
2022/09/16 08:28:59;;;;;;;2.90;1.50;;;;;;;-146.58;100.00;69501.63;4992148;28;20038;-63
2022/09/16 08:31:25;;;;;;;2.00;1.05;;;;;;;-146.58;100.00;69501.63;4984784;28;20047;-63
2022/09/16 08:33:50;;;;;;;4.97;1.60;;;;;;;-146.58;100.00;69501.63;4973831;28;20049;-63
2022/09/16 08:36:21;;;;;;;2.95;1.48;;;;;;;-146.58;100.00;69501.63;4979650;28;20081;-63
2022/09/16 08:38:49;;;;;;;4.35;1.48;;;;;;;-146.58;100.00;69501.63;4972884;28;20054;-63
2022/09/16 08:41:32;;;;;;;4.60;1.50;;;;;;;-146.58;100.00;69501.63;4974110;28;20101;-63
2022/09/16 08:44:20;;;;;;;1.95;1.00;;;;;;;-146.58;100.00;69501.63;4972026;28;20039;-63
2022/09/16 08:46:56;;;;;;;4.40;1.80;;;;;;;-146.58;100.00;69501.63;4973938;28;20027;-63
2022/09/16 08:49:43;;;;;;;4.65;2.47;;;;;;;-146.58;100.00;69501.63;4972477;28;20039;-63
2022/09/16 08:52:27;;;;;;;2.78;1.23;;;;;;;-146.58;100.00;69501.63;4973740;28;20406;-64
2022/09/16 08:54:57;;;;;;;7.20;1.40;;;;;;;-146.58;100.00;69501.63;4981455;28;20046;-62
2022/09/16 08:57:27;;;;;;;5.20;2.25;;;;;;;-146.58;100.00;69501.63;4992239;28;20034;-63
2022/09/16 09:00:11;;;;;;;7.47;2.85;;;;;;;-146.58;100.00;69501.63;4991891;28;20038;-63
2022/09/16 09:02:41;;;;;;;2.20;1.08;;;;;;;-146.58;100.00;69501.63;4993117;28;20022;-63
2022/09/16 09:05:16;;;;;;;5.07;1.58;;;;;;;-146.58;100.00;69501.63;4991112;28;20510;-63
2022/09/16 09:08:00;;;;;;;3.97;1.83;;;;;;;-146.58;100.00;69501.63;4980164;28;20082;-63
2022/09/16 09:10:52;;;;;;;5.05;2.65;;;;;;;-146.58;100.00;69501.63;4972230;28;20050;-63
2022/09/16 09:13:45;;;;;;;2.63;1.55;;;;;;;-146.58;100.00;69501.63;4978556;28;20041;-63
2022/09/16 09:16:31;;;;;;;3.65;1.52;;;;;;;-146.58;100.00;69501.63;4952684;28;20054;-63
2022/09/16 09:19:15;;;;;;;5.78;1.45;;;;;;;-146.58;100.00;69501.63;4952361;28;20043;-63
2022/09/16 09:21:40;;;;;;;15.20;3.40;;;;;;;-146.58;100.00;69501.63;4964350;28;20057;-63
2022/09/16 09:24:30;;;;;;;6.78;2.20;;;;;;;-146.58;100.00;69501.63;4971522;28;20550;-63
2022/09/16 09:27:12;;;;;;;6.95;2.42;;;;;;;-146.58;100.00;69501.63;4972742;28;20414;-63
2022/09/16 09:29:58;;;;;;;7.82;1.92;;;;;;;-146.58;100.00;69501.63;4971685;28;20565;-63
2022/09/16 09:32:48;;;;;;;4.05;1.30;;;;;;;-146.58;100.00;69501.63;4973480;28;20030;-63
2022/09/16 09:35:53;;;;;;;2.25;1.75;;;;;;;-146.58;100.00;69501.63;4971060;28;20046;-63
2022/09/16 09:38:33;;;;;;;3.25;1.20;;;;;;;-146.58;100.00;69501.63;4973137;28;20078;-63
2022/09/16 09:41:22;;;;;;;3.25;1.02;;;;;;;-146.58;100.00;69501.63;4971139;28;20065;-63
2022/09/16 09:43:56;;;;;;;2.35;1.02;;;;;;;-146.58;100.00;69501.63;4971669;28;20035;-63
2022/09/16 09:46:32;;;;;;;2.53;1.40;;;;;;;-146.58;100.00;69501.63;4973147;28;20022;-63
2022/09/16 09:49:12;;;;;;;3.22;1.20;;;;;;;-146.58;100.00;69501.63;4970921;28;20050;-63
2022/09/16 09:52:00;;;;;;;8.68;1.50;;;;;;;-146.58;100.00;69501.63;4972664;28;20045;-63
2022/09/16 09:54:25;;;;;;;4.55;1.85;;;;;;;-146.58;100.00;69501.63;4971438;28;20117;-63
2022/09/16 09:57:14;;;;;;;4.70;1.92;;;;;;;-146.58;100.00;69501.63;4967553;28;20476;-63
2022/09/16 09:59:57;;;;;;;3.85;1.98;;;;;;;-146.58;100.00;69501.63;4984988;28;20180;-63
2022/09/16 10:02:22;;;;;;;2.85;1.58;;;;;;;-146.58;100.00;69501.63;4991855;28;20053;-63
2022/09/16 10:04:48;;;;;;;5.65;1.63;;;;;;;-146.58;100.00;69501.63;4990047;28;20077;-63
2022/09/16 10:07:16;;;;;;;15.07;1.83;;;;;;;-146.58;100.00;69501.63;4991864;28;20568;-63
2022/09/16 10:10:03;;;;;;;5.28;2.03;;;;;;;-146.58;100.00;69501.63;4990597;28;20136;-63
2022/09/16 10:12:34;;;;;;;2.72;2.08;;;;;;;-146.58;100.00;69501.63;4990372;28;20780;-63
2022/09/16 10:15:00;;;;;;;5.10;1.45;;;;;;;-146.58;100.00;69501.63;4989287;28;20042;-63
2022/09/16 10:17:30;;;;;;;6.45;3.13;;;;;;;-146.58;100.00;69501.63;4991796;28;20520;-63
2022/09/16 10:20:06;;;;;;;6.32;1.27;;;;;;;-146.58;100.00;69501.63;4989984;28;20039;-63
2022/09/16 10:22:33;;;;;;;6.63;2.25;;;;;;;-146.58;100.00;69501.63;4991148;28;20382;-63
2022/09/16 10:25:02;;;;;;;5.80;2.70;;;;;;;-146.58;100.00;69501.63;4982702;28;20180;-64
2022/09/16 10:27:34;;;;;;;2.45;1.20;;;;;;;-146.58;100.00;69501.63;4991051;28;20030;-63
2022/09/16 10:30:05;;;;;;;2.58;1.30;;;;;;;-146.58;100.00;69501.63;4989696;28;20080;-63
2022/09/16 10:32:38;;;;;;;2.15;1.45;;;;;;;-146.58;100.00;69501.63;4991640;28;20092;-63
2022/09/16 10:35:07;;;;;;;0.95;0.90;;;;;;;-146.58;100.00;69501.63;4988215;28;20038;-63
2022/09/16 10:37:33;;;;;;;2.60;1.20;;;;;;;-146.58;100.00;69501.63;4990011;28;20054;-63
2022/09/16 10:39:58;;;;;;;7.18;1.73;;;;;;;-146.58;100.00;69501.63;4990011;28;20394;-63
2022/09/16 10:42:26;;;;;;;1.38;1.02;;;;;;;-146.58;100.00;69501.63;4991005;28;20041;-63
2022/09/16 10:44:55;;;;;;;1.80;1.27;;;;;;;-146.58;100.00;69501.63;4989326;28;20042;-62
2022/09/16 10:47:24;;;;;;;3.58;1.20;;;;;;;-146.58;100.00;69501.63;4991609;28;20026;-63
2022/09/16 10:49:53;;;;;;;5.05;1.38;;;;;;;-146.58;100.00;69501.63;4989552;28;20103;-63
2022/09/16 10:52:25;;;;;;;6.15;1.50;;;;;;;-146.58;100.00;69501.63;4991597;28;20018;-63
2022/09/16 10:54:51;;;;;;;3.03;1.05;;;;;;;-146.58;100.00;69501.63;4989935;28;20130;-62
2022/09/16 10:57:30;;;;;;;2.72;1.00;;;;;;;-146.58;100.00;69501.63;4991458;28;20022;-63
2022/09/16 11:00:09;;;;;;;2.38;1.45;;;;;;;-146.58;100.00;69501.63;4989885;28;20046;-63
2022/09/16 11:03:03;;;;;;;4.65;1.10;;;;;;;-146.58;100.00;69501.63;4991478;28;20034;-63
2022/09/16 11:05:34;;;;;;;3.53;1.13;;;;;;;-146.58;100.00;69501.63;4993950;28;20117;-63
2022/09/16 11:08:16;;;;;;;2.10;1.33;;;;;;;-146.58;100.00;69501.63;4991889;28;20027;-62
2022/09/16 11:10:55;;;;;;;4.43;1.48;;;;;;;-146.58;100.00;69501.63;4992713;28;20042;-62
2022/09/16 11:13:50;;;;;;;2.17;1.45;;;;;;;-146.58;100.00;69501.63;4994857;28;20034;-63
2022/09/16 11:16:31;;;;;;;2.63;0.93;;;;;;;-146.58;100.00;69501.63;4992536;28;20506;-63
2022/09/16 11:19:12;;;;;;;2.58;1.08;;;;;;;-146.58;100.00;69501.63;4992978;28;20038;-62
2022/09/16 11:21:49;;;;;;;1.35;1.20;;;;;;;-146.58;100.00;69501.63;4994597;28;20367;-62
2022/09/16 11:24:35;;;;;;;3.10;2.20;;;;;;;-146.58;100.00;69501.63;4992172;28;20050;-62
2022/09/16 11:27:00;;;;;;;5.07;1.25;;;;;;;-146.58;100.00;69501.63;4994578;28;20026;-62
2022/09/16 11:29:41;;;;;;;3.50;1.23;;;;;;;-146.58;100.00;69501.63;4992840;28;20451;-61
2022/09/16 11:32:22;;;;;;;2.05;1.20;;;;;;;-146.58;100.00;69501.63;4994090;28;20049;-62
2022/09/16 11:35:02;;;;;;;1.70;1.48;;;;;;;-146.58;100.00;69501.63;4993434;28;20062;-62
2022/09/16 11:37:50;;;;;;;5.57;1.02;;;;;;;-146.58;100.00;69501.63;4997200;28;20052;-63